sensor_id;sensor_type;location;lat;lon;timestamp;temperature;humidity
64939;DHT22;51453;47.738;7.420;2023-12-29T00:02:01;6.20;99.90
64939;DHT22;51453;47.738;7.420;2023-12-29T00:04:27;6.20;99.90
64939;DHT22;51453;47.738;7.420;2023-12-29T00:06:52;6.30;99.90
64939;DHT22;51453;47.738;7.420;2023-12-29T00:09:18;6.30;99.90
64939;DHT22;51453;47.738;7.420;2023-12-29T00:11:48;6.40;99.90
64939;DHT22;51453;47.738;7.420;2023-12-29T00:14:13;6.40;99.90
64939;DHT22;51453;47.738;7.420;2023-12-29T00:16:39;6.40;99.90
64939;DHT22;51453;47.738;7.420;2023-12-29T00:19:05;6.50;99.90
64939;DHT22;51453;47.738;7.420;2023-12-29T00:21:30;6.50;99.90
64939;DHT22;51453;47.738;7.420;2023-12-29T00:23:56;6.50;99.90
64939;DHT22;51453;47.738;7.420;2023-12-29T00:26:22;6.50;99.90
64939;DHT22;51453;47.738;7.420;2023-12-29T00:28:48;6.60;99.90
64939;DHT22;51453;47.738;7.420;2023-12-29T00:31:17;6.60;99.90
64939;DHT22;51453;47.738;7.420;2023-12-29T00:33:45;6.60;99.90
64939;DHT22;51453;47.738;7.420;2023-12-29T00:36:20;6.60;99.90
64939;DHT22;51453;47.738;7.420;2023-12-29T00:38:46;6.80;99.90
64939;DHT22;51453;47.738;7.420;2023-12-29T00:41:12;6.80;99.90
64939;DHT22;51453;47.738;7.420;2023-12-29T00:43:38;6.70;99.90
64939;DHT22;51453;47.738;7.420;2023-12-29T00:46:04;6.70;99.90
64939;DHT22;51453;47.738;7.420;2023-12-29T00:48:31;6.70;99.90
64939;DHT22;51453;47.738;7.420;2023-12-29T00:50:56;6.70;99.90
64939;DHT22;51453;47.738;7.420;2023-12-29T00:53:22;6.80;99.90
64939;DHT22;51453;47.738;7.420;2023-12-29T00:55:47;6.80;99.90
64939;DHT22;51453;47.738;7.420;2023-12-29T00:58:13;6.70;99.90
64939;DHT22;51453;47.738;7.420;2023-12-29T01:00:39;6.70;99.90
64939;DHT22;51453;47.738;7.420;2023-12-29T01:03:05;6.70;99.90
64939;DHT22;51453;47.738;7.420;2023-12-29T01:05:30;6.80;99.90
64939;DHT22;51453;47.738;7.420;2023-12-29T01:07:56;6.80;99.90
64939;DHT22;51453;47.738;7.420;2023-12-29T01:10:21;6.80;99.90
64939;DHT22;51453;47.738;7.420;2023-12-29T01:12:47;6.80;99.90
64939;DHT22;51453;47.738;7.420;2023-12-29T01:15:13;6.80;99.90
64939;DHT22;51453;47.738;7.420;2023-12-29T01:17:39;6.90;99.90
64939;DHT22;51453;47.738;7.420;2023-12-29T01:20:05;7.00;99.90
64939;DHT22;51453;47.738;7.420;2023-12-29T01:22:31;7.20;99.90
64939;DHT22;51453;47.738;7.420;2023-12-29T01:24:58;7.30;99.90
64939;DHT22;51453;47.738;7.420;2023-12-29T01:27:24;7.40;99.90
64939;DHT22;51453;47.738;7.420;2023-12-29T01:29:50;7.40;99.90
64939;DHT22;51453;47.738;7.420;2023-12-29T01:32:15;7.40;99.90
64939;DHT22;51453;47.738;7.420;2023-12-29T01:34:41;7.50;99.90
64939;DHT22;51453;47.738;7.420;2023-12-29T01:37:06;7.50;99.90
64939;DHT22;51453;47.738;7.420;2023-12-29T01:39:33;7.60;99.90
64939;DHT22;51453;47.738;7.420;2023-12-29T01:42:00;7.60;99.90
64939;DHT22;51453;47.738;7.420;2023-12-29T01:44:25;7.60;99.90
64939;DHT22;51453;47.738;7.420;2023-12-29T01:46:56;7.60;99.90
64939;DHT22;51453;47.738;7.420;2023-12-29T01:49:22;7.60;99.90
64939;DHT22;51453;47.738;7.420;2023-12-29T01:51:58;7.50;99.90
64939;DHT22;51453;47.738;7.420;2023-12-29T01:54:29;7.50;99.90
64939;DHT22;51453;47.738;7.420;2023-12-29T01:56:56;7.50;99.90
64939;DHT22;51453;47.738;7.420;2023-12-29T01:59:25;7.50;99.90
64939;DHT22;51453;47.738;7.420;2023-12-29T02:01:51;7.60;99.90
64939;DHT22;51453;47.738;7.420;2023-12-29T02:04:19;7.70;99.90
64939;DHT22;51453;47.738;7.420;2023-12-29T02:06:44;7.70;99.90
64939;DHT22;51453;47.738;7.420;2023-12-29T02:09:11;7.70;99.90
64939;DHT22;51453;47.738;7.420;2023-12-29T02:11:41;7.70;99.90
64939;DHT22;51453;47.738;7.420;2023-12-29T02:14:07;7.60;99.90
64939;DHT22;51453;47.738;7.420;2023-12-29T02:17:04;7.60;99.90
64939;DHT22;51453;47.738;7.420;2023-12-29T02:19:41;7.70;99.90
64939;DHT22;51453;47.738;7.420;2023-12-29T02:22:08;7.70;99.90
64939;DHT22;51453;47.738;7.420;2023-12-29T02:24:34;7.80;99.90
64939;DHT22;51453;47.738;7.420;2023-12-29T02:27:40;7.70;99.90
64939;DHT22;51453;47.738;7.420;2023-12-29T02:31:09;7.80;99.90
64939;DHT22;51453;47.738;7.420;2023-12-29T02:33:18;7.70;99.90
64939;DHT22;51453;47.738;7.420;2023-12-29T02:35:45;7.70;99.90
64939;DHT22;51453;47.738;7.420;2023-12-29T02:38:12;7.70;99.90
64939;DHT22;51453;47.738;7.420;2023-12-29T02:40:38;7.70;99.90
64939;DHT22;51453;47.738;7.420;2023-12-29T02:43:04;7.60;99.90
64939;DHT22;51453;47.738;7.420;2023-12-29T02:45:30;7.70;99.90
64939;DHT22;51453;47.738;7.420;2023-12-29T02:47:56;7.70;99.90
64939;DHT22;51453;47.738;7.420;2023-12-29T02:50:21;7.80;99.90
64939;DHT22;51453;47.738;7.420;2023-12-29T02:52:47;7.80;99.90
64939;DHT22;51453;47.738;7.420;2023-12-29T02:55:13;7.80;99.90
64939;DHT22;51453;47.738;7.420;2023-12-29T02:57:39;7.80;99.90
64939;DHT22;51453;47.738;7.420;2023-12-29T03:00:06;7.70;99.90
64939;DHT22;51453;47.738;7.420;2023-12-29T03:02:32;7.70;99.90
64939;DHT22;51453;47.738;7.420;2023-12-29T03:04:58;7.60;99.90
64939;DHT22;51453;47.738;7.420;2023-12-29T03:07:24;7.70;99.90
64939;DHT22;51453;47.738;7.420;2023-12-29T03:09:49;7.60;99.90
64939;DHT22;51453;47.738;7.420;2023-12-29T03:12:15;7.60;99.90
64939;DHT22;51453;47.738;7.420;2023-12-29T03:14:41;7.60;99.90
64939;DHT22;51453;47.738;7.420;2023-12-29T03:17:06;7.50;99.90
64939;DHT22;51453;47.738;7.420;2023-12-29T03:19:32;7.50;99.90
64939;DHT22;51453;47.738;7.420;2023-12-29T03:21:58;7.60;99.90
64939;DHT22;51453;47.738;7.420;2023-12-29T03:24:23;7.50;99.90
64939;DHT22;51453;47.738;7.420;2023-12-29T03:26:49;7.50;99.90
64939;DHT22;51453;47.738;7.420;2023-12-29T03:29:14;7.50;99.90
64939;DHT22;51453;47.738;7.420;2023-12-29T03:31:40;7.40;99.90
64939;DHT22;51453;47.738;7.420;2023-12-29T03:34:06;7.40;99.90
64939;DHT22;51453;47.738;7.420;2023-12-29T03:36:32;7.40;99.90
64939;DHT22;51453;47.738;7.420;2023-12-29T03:38:58;7.30;99.90
64939;DHT22;51453;47.738;7.420;2023-12-29T03:41:23;7.20;99.90
64939;DHT22;51453;47.738;7.420;2023-12-29T03:43:49;7.10;99.90
64939;DHT22;51453;47.738;7.420;2023-12-29T03:46:19;7.10;99.90
64939;DHT22;51453;47.738;7.420;2023-12-29T03:48:45;7.10;99.90
64939;DHT22;51453;47.738;7.420;2023-12-29T03:51:10;7.10;99.90
64939;DHT22;51453;47.738;7.420;2023-12-29T03:53:36;7.00;99.90
64939;DHT22;51453;47.738;7.420;2023-12-29T03:56:08;7.00;99.90
64939;DHT22;51453;47.738;7.420;2023-12-29T03:58:35;7.00;99.90
64939;DHT22;51453;47.738;7.420;2023-12-29T04:01:01;7.00;99.90
64939;DHT22;51453;47.738;7.420;2023-12-29T04:03:27;7.00;99.90
64939;DHT22;51453;47.738;7.420;2023-12-29T04:05:52;7.00;99.90
64939;DHT22;51453;47.738;7.420;2023-12-29T04:08:18;7.00;99.90
64939;DHT22;51453;47.738;7.420;2023-12-29T04:10:43;6.90;99.90
64939;DHT22;51453;47.738;7.420;2023-12-29T04:13:09;6.90;99.90
64939;DHT22;51453;47.738;7.420;2023-12-29T04:15:35;7.00;99.90
64939;DHT22;51453;47.738;7.420;2023-12-29T04:18:00;7.00;99.90
64939;DHT22;51453;47.738;7.420;2023-12-29T04:20:26;7.10;99.90
64939;DHT22;51453;47.738;7.420;2023-12-29T04:22:52;7.10;99.90
64939;DHT22;51453;47.738;7.420;2023-12-29T04:25:18;7.20;99.90
64939;DHT22;51453;47.738;7.420;2023-12-29T04:27:43;7.20;99.90
64939;DHT22;51453;47.738;7.420;2023-12-29T04:30:09;7.30;99.90
64939;DHT22;51453;47.738;7.420;2023-12-29T04:32:35;7.30;99.90
64939;DHT22;51453;47.738;7.420;2023-12-29T04:35:01;7.30;99.90
64939;DHT22;51453;47.738;7.420;2023-12-29T04:37:26;7.30;99.90
64939;DHT22;51453;47.738;7.420;2023-12-29T04:39:52;7.40;99.90
64939;DHT22;51453;47.738;7.420;2023-12-29T04:42:18;7.50;99.90
64939;DHT22;51453;47.738;7.420;2023-12-29T04:44:44;7.50;99.90
64939;DHT22;51453;47.738;7.420;2023-12-29T04:47:10;7.50;99.90
64939;DHT22;51453;47.738;7.420;2023-12-29T04:49:35;7.60;99.90
64939;DHT22;51453;47.738;7.420;2023-12-29T04:52:01;7.60;99.90
64939;DHT22;51453;47.738;7.420;2023-12-29T04:54:27;7.70;99.90
64939;DHT22;51453;47.738;7.420;2023-12-29T04:56:53;7.70;99.90
64939;DHT22;51453;47.738;7.420;2023-12-29T04:59:18;7.70;99.90
64939;DHT22;51453;47.738;7.420;2023-12-29T05:01:44;7.70;99.90
64939;DHT22;51453;47.738;7.420;2023-12-29T05:04:10;7.70;99.90
64939;DHT22;51453;47.738;7.420;2023-12-29T05:06:36;7.70;99.90
64939;DHT22;51453;47.738;7.420;2023-12-29T05:09:02;7.70;99.90
64939;DHT22;51453;47.738;7.420;2023-12-29T05:11:28;7.60;99.90
64939;DHT22;51453;47.738;7.420;2023-12-29T05:13:53;7.70;99.90
64939;DHT22;51453;47.738;7.420;2023-12-29T05:16:19;7.60;99.90
64939;DHT22;51453;47.738;7.420;2023-12-29T05:18:44;7.60;99.90
64939;DHT22;51453;47.738;7.420;2023-12-29T05:21:17;7.50;99.90
64939;DHT22;51453;47.738;7.420;2023-12-29T05:23:45;7.50;99.90
64939;DHT22;51453;47.738;7.420;2023-12-29T05:26:13;7.50;99.90
64939;DHT22;51453;47.738;7.420;2023-12-29T05:28:38;7.50;99.90
64939;DHT22;51453;47.738;7.420;2023-12-29T05:31:04;7.50;99.90
64939;DHT22;51453;47.738;7.420;2023-12-29T05:33:31;7.40;99.90
64939;DHT22;51453;47.738;7.420;2023-12-29T05:35:57;7.40;99.90
64939;DHT22;51453;47.738;7.420;2023-12-29T05:38:23;7.30;99.90
64939;DHT22;51453;47.738;7.420;2023-12-29T05:40:48;7.30;99.90
64939;DHT22;51453;47.738;7.420;2023-12-29T05:43:15;7.40;99.90
64939;DHT22;51453;47.738;7.420;2023-12-29T05:45:41;7.40;99.90
64939;DHT22;51453;47.738;7.420;2023-12-29T05:48:07;7.40;99.90
64939;DHT22;51453;47.738;7.420;2023-12-29T05:50:33;7.30;99.90
64939;DHT22;51453;47.738;7.420;2023-12-29T05:52:58;7.30;99.90
64939;DHT22;51453;47.738;7.420;2023-12-29T05:55:24;7.40;99.90
64939;DHT22;51453;47.738;7.420;2023-12-29T05:57:50;7.50;99.90
64939;DHT22;51453;47.738;7.420;2023-12-29T06:00:16;7.50;99.90
64939;DHT22;51453;47.738;7.420;2023-12-29T06:02:42;7.60;99.90
64939;DHT22;51453;47.738;7.420;2023-12-29T06:05:10;7.60;99.90
64939;DHT22;51453;47.738;7.420;2023-12-29T06:07:36;7.50;99.90
64939;DHT22;51453;47.738;7.420;2023-12-29T06:10:02;7.50;99.90
64939;DHT22;51453;47.738;7.420;2023-12-29T06:12:27;7.60;99.90
64939;DHT22;51453;47.738;7.420;2023-12-29T06:14:53;7.60;99.90
64939;DHT22;51453;47.738;7.420;2023-12-29T06:17:19;7.50;99.90
64939;DHT22;51453;47.738;7.420;2023-12-29T06:19:45;7.50;99.90
64939;DHT22;51453;47.738;7.420;2023-12-29T06:22:10;7.50;99.90
64939;DHT22;51453;47.738;7.420;2023-12-29T06:24:37;7.50;99.90
64939;DHT22;51453;47.738;7.420;2023-12-29T06:27:03;7.50;99.90
64939;DHT22;51453;47.738;7.420;2023-12-29T06:29:29;7.40;99.90
64939;DHT22;51453;47.738;7.420;2023-12-29T06:31:55;7.40;99.90
64939;DHT22;51453;47.738;7.420;2023-12-29T06:34:20;7.30;99.90
64939;DHT22;51453;47.738;7.420;2023-12-29T06:36:46;7.30;99.90
64939;DHT22;51453;47.738;7.420;2023-12-29T06:39:11;7.20;99.90
64939;DHT22;51453;47.738;7.420;2023-12-29T06:41:37;7.20;99.90
64939;DHT22;51453;47.738;7.420;2023-12-29T06:44:03;7.20;99.90
64939;DHT22;51453;47.738;7.420;2023-12-29T06:46:28;7.20;99.90
64939;DHT22;51453;47.738;7.420;2023-12-29T06:48:54;7.30;99.90
64939;DHT22;51453;47.738;7.420;2023-12-29T06:51:20;7.30;99.90
64939;DHT22;51453;47.738;7.420;2023-12-29T06:53:48;7.30;99.90
64939;DHT22;51453;47.738;7.420;2023-12-29T06:56:15;7.20;99.90
64939;DHT22;51453;47.738;7.420;2023-12-29T06:58:41;7.10;99.90
64939;DHT22;51453;47.738;7.420;2023-12-29T07:01:07;7.20;99.90
64939;DHT22;51453;47.738;7.420;2023-12-29T07:03:32;7.10;99.90
64939;DHT22;51453;47.738;7.420;2023-12-29T07:06:00;7.10;99.90
64939;DHT22;51453;47.738;7.420;2023-12-29T07:08:27;7.10;99.90
64939;DHT22;51453;47.738;7.420;2023-12-29T07:10:53;7.20;99.90
64939;DHT22;51453;47.738;7.420;2023-12-29T07:13:18;7.20;99.90
64939;DHT22;51453;47.738;7.420;2023-12-29T07:15:48;7.30;99.90
64939;DHT22;51453;47.738;7.420;2023-12-29T07:18:14;7.40;99.90
64939;DHT22;51453;47.738;7.420;2023-12-29T07:20:40;7.40;99.90
64939;DHT22;51453;47.738;7.420;2023-12-29T07:23:06;7.50;99.90
64939;DHT22;51453;47.738;7.420;2023-12-29T07:25:31;7.50;99.90
64939;DHT22;51453;47.738;7.420;2023-12-29T07:27:57;7.50;99.90
64939;DHT22;51453;47.738;7.420;2023-12-29T07:30:23;7.70;99.90
64939;DHT22;51453;47.738;7.420;2023-12-29T07:32:48;7.80;99.90
64939;DHT22;51453;47.738;7.420;2023-12-29T07:35:14;8.00;99.90
64939;DHT22;51453;47.738;7.420;2023-12-29T07:37:43;8.40;99.90
64939;DHT22;51453;47.738;7.420;2023-12-29T07:40:13;8.70;99.90
64939;DHT22;51453;47.738;7.420;2023-12-29T07:42:42;8.70;99.90
64939;DHT22;51453;47.738;7.420;2023-12-29T07:45:10;8.70;99.90
64939;DHT22;51453;47.738;7.420;2023-12-29T07:47:36;8.90;99.90
64939;DHT22;51453;47.738;7.420;2023-12-29T07:50:02;8.80;99.90
64939;DHT22;51453;47.738;7.420;2023-12-29T07:52:27;8.80;99.90
64939;DHT22;51453;47.738;7.420;2023-12-29T07:54:53;8.90;99.90
64939;DHT22;51453;47.738;7.420;2023-12-29T07:57:19;8.80;99.90
64939;DHT22;51453;47.738;7.420;2023-12-29T07:59:44;9.00;99.90
64939;DHT22;51453;47.738;7.420;2023-12-29T08:02:10;9.00;99.90
64939;DHT22;51453;47.738;7.420;2023-12-29T08:04:36;8.90;99.90
64939;DHT22;51453;47.738;7.420;2023-12-29T08:07:02;9.00;99.90
64939;DHT22;51453;47.738;7.420;2023-12-29T08:09:28;9.10;99.90
64939;DHT22;51453;47.738;7.420;2023-12-29T08:11:54;9.20;99.90
64939;DHT22;51453;47.738;7.420;2023-12-29T08:14:19;9.20;99.90
64939;DHT22;51453;47.738;7.420;2023-12-29T08:16:45;9.30;99.90
64939;DHT22;51453;47.738;7.420;2023-12-29T08:19:11;9.30;99.90
64939;DHT22;51453;47.738;7.420;2023-12-29T08:21:36;9.40;99.90
64939;DHT22;51453;47.738;7.420;2023-12-29T08:24:02;9.30;99.90
64939;DHT22;51453;47.738;7.420;2023-12-29T08:26:28;9.40;99.90
64939;DHT22;51453;47.738;7.420;2023-12-29T08:28:54;9.50;99.90
64939;DHT22;51453;47.738;7.420;2023-12-29T08:31:20;9.50;99.90
64939;DHT22;51453;47.738;7.420;2023-12-29T08:33:47;9.50;99.90
64939;DHT22;51453;47.738;7.420;2023-12-29T08:36:13;9.60;99.90
64939;DHT22;51453;47.738;7.420;2023-12-29T08:38:39;9.70;99.90
64939;DHT22;51453;47.738;7.420;2023-12-29T08:41:05;9.80;99.90
64939;DHT22;51453;47.738;7.420;2023-12-29T08:43:31;9.80;99.90
64939;DHT22;51453;47.738;7.420;2023-12-29T08:45:57;9.90;99.90
64939;DHT22;51453;47.738;7.420;2023-12-29T08:48:22;9.90;99.90
64939;DHT22;51453;47.738;7.420;2023-12-29T08:50:49;9.90;99.90
64939;DHT22;51453;47.738;7.420;2023-12-29T08:53:15;10.00;99.90
64939;DHT22;51453;47.738;7.420;2023-12-29T08:55:41;9.90;99.90
64939;DHT22;51453;47.738;7.420;2023-12-29T08:58:07;9.90;99.90
64939;DHT22;51453;47.738;7.420;2023-12-29T09:00:32;9.90;99.90
64939;DHT22;51453;47.738;7.420;2023-12-29T09:02:59;9.80;99.90
64939;DHT22;51453;47.738;7.420;2023-12-29T09:05:25;9.80;99.90
64939;DHT22;51453;47.738;7.420;2023-12-29T09:07:50;9.80;99.90
64939;DHT22;51453;47.738;7.420;2023-12-29T09:10:16;9.80;99.90
64939;DHT22;51453;47.738;7.420;2023-12-29T09:12:43;9.80;99.90
64939;DHT22;51453;47.738;7.420;2023-12-29T09:15:09;9.90;99.90
64939;DHT22;51453;47.738;7.420;2023-12-29T09:17:35;9.80;99.90
64939;DHT22;51453;47.738;7.420;2023-12-29T09:20:01;9.70;99.90
64939;DHT22;51453;47.738;7.420;2023-12-29T09:22:26;9.80;99.90
64939;DHT22;51453;47.738;7.420;2023-12-29T09:24:54;9.80;99.90
64939;DHT22;51453;47.738;7.420;2023-12-29T09:27:20;9.70;99.90
64939;DHT22;51453;47.738;7.420;2023-12-29T09:29:45;9.70;99.90
64939;DHT22;51453;47.738;7.420;2023-12-29T09:32:11;9.70;99.90
64939;DHT22;51453;47.738;7.420;2023-12-29T09:34:37;9.70;99.90
64939;DHT22;51453;47.738;7.420;2023-12-29T09:37:02;9.70;99.90
64939;DHT22;51453;47.738;7.420;2023-12-29T09:39:28;9.70;99.90
64939;DHT22;51453;47.738;7.420;2023-12-29T09:41:57;9.70;99.90
64939;DHT22;51453;47.738;7.420;2023-12-29T09:44:24;9.80;99.90
64939;DHT22;51453;47.738;7.420;2023-12-29T09:46:53;9.90;99.90
64939;DHT22;51453;47.738;7.420;2023-12-29T09:49:19;9.90;99.90
64939;DHT22;51453;47.738;7.420;2023-12-29T09:51:45;10.10;99.90
64939;DHT22;51453;47.738;7.420;2023-12-29T09:54:11;10.10;99.90
64939;DHT22;51453;47.738;7.420;2023-12-29T09:56:38;10.20;99.90
64939;DHT22;51453;47.738;7.420;2023-12-29T09:59:04;10.30;99.90
64939;DHT22;51453;47.738;7.420;2023-12-29T10:01:30;10.40;99.90
64939;DHT22;51453;47.738;7.420;2023-12-29T10:03:57;10.50;99.90
64939;DHT22;51453;47.738;7.420;2023-12-29T10:06:25;10.60;99.90
64939;DHT22;51453;47.738;7.420;2023-12-29T10:08:51;10.60;99.90
64939;DHT22;51453;47.738;7.420;2023-12-29T10:11:20;10.70;99.90
64939;DHT22;51453;47.738;7.420;2023-12-29T10:13:51;10.80;99.90
64939;DHT22;51453;47.738;7.420;2023-12-29T10:16:38;10.90;99.90
64939;DHT22;51453;47.738;7.420;2023-12-29T10:19:39;11.10;99.90
64939;DHT22;51453;47.738;7.420;2023-12-29T10:22:31;11.30;99.90
64939;DHT22;51453;47.738;7.420;2023-12-29T10:24:59;11.40;99.90
64939;DHT22;51453;47.738;7.420;2023-12-29T10:27:25;11.60;99.90
64939;DHT22;51453;47.738;7.420;2023-12-29T10:29:52;11.60;99.90
64939;DHT22;51453;47.738;7.420;2023-12-29T10:32:17;11.60;99.90
64939;DHT22;51453;47.738;7.420;2023-12-29T10:34:43;11.60;99.90
64939;DHT22;51453;47.738;7.420;2023-12-29T10:37:09;11.60;99.90
64939;DHT22;51453;47.738;7.420;2023-12-29T10:39:39;11.70;99.90
64939;DHT22;51453;47.738;7.420;2023-12-29T10:42:09;11.70;99.90
64939;DHT22;51453;47.738;7.420;2023-12-29T10:44:36;11.80;99.90
64939;DHT22;51453;47.738;7.420;2023-12-29T10:47:09;11.60;99.90
64939;DHT22;51453;47.738;7.420;2023-12-29T10:49:35;11.70;99.90
64939;DHT22;51453;47.738;7.420;2023-12-29T10:52:11;11.70;99.90
64939;DHT22;51453;47.738;7.420;2023-12-29T10:54:37;11.70;99.90
64939;DHT22;51453;47.738;7.420;2023-12-29T10:57:03;11.70;99.90
64939;DHT22;51453;47.738;7.420;2023-12-29T10:59:29;11.70;99.90
64939;DHT22;51453;47.738;7.420;2023-12-29T11:01:56;11.80;99.90
64939;DHT22;51453;47.738;7.420;2023-12-29T11:04:22;11.90;99.90
64939;DHT22;51453;47.738;7.420;2023-12-29T11:06:48;11.90;99.90
64939;DHT22;51453;47.738;7.420;2023-12-29T11:09:32;11.90;99.90
64939;DHT22;51453;47.738;7.420;2023-12-29T11:12:05;12.00;99.90
64939;DHT22;51453;47.738;7.420;2023-12-29T11:14:34;12.20;99.90
64939;DHT22;51453;47.738;7.420;2023-12-29T11:17:00;12.60;99.90
64939;DHT22;51453;47.738;7.420;2023-12-29T11:19:29;12.60;99.90
64939;DHT22;51453;47.738;7.420;2023-12-29T11:21:56;12.60;99.90
64939;DHT22;51453;47.738;7.420;2023-12-29T11:24:22;12.50;99.90
64939;DHT22;51453;47.738;7.420;2023-12-29T11:26:49;12.50;99.90
64939;DHT22;51453;47.738;7.420;2023-12-29T11:29:16;12.40;99.90
64939;DHT22;51453;47.738;7.420;2023-12-29T11:31:43;12.20;99.90
64939;DHT22;51453;47.738;7.420;2023-12-29T11:34:19;12.00;99.90
64939;DHT22;51453;47.738;7.420;2023-12-29T11:36:46;12.00;99.90
64939;DHT22;51453;47.738;7.420;2023-12-29T11:42:17;12.10;99.90
64939;DHT22;51453;47.738;7.420;2023-12-29T11:44:45;12.00;99.90
64939;DHT22;51453;47.738;7.420;2023-12-29T11:50:02;11.90;99.90
64939;DHT22;51453;47.738;7.420;2023-12-29T11:52:35;12.00;99.90
64939;DHT22;51453;47.738;7.420;2023-12-29T11:55:11;12.10;99.90
64939;DHT22;51453;47.738;7.420;2023-12-29T11:57:37;12.30;99.90
64939;DHT22;51453;47.738;7.420;2023-12-29T12:00:05;12.40;99.90
64939;DHT22;51453;47.738;7.420;2023-12-29T12:02:31;12.50;99.90
64939;DHT22;51453;47.738;7.420;2023-12-29T12:04:57;12.50;99.90
64939;DHT22;51453;47.738;7.420;2023-12-29T12:12:58;12.60;99.90
64939;DHT22;51453;47.738;7.420;2023-12-29T12:15:31;12.50;99.90
64939;DHT22;51453;47.738;7.420;2023-12-29T12:18:01;12.30;99.90
64939;DHT22;51453;47.738;7.420;2023-12-29T12:20:32;12.20;99.90
64939;DHT22;51453;47.738;7.420;2023-12-29T12:22:59;12.10;99.90
64939;DHT22;51453;47.738;7.420;2023-12-29T12:25:26;12.10;99.90
64939;DHT22;51453;47.738;7.420;2023-12-29T12:27:58;12.20;99.90
64939;DHT22;51453;47.738;7.420;2023-12-29T12:30:24;12.40;99.90
64939;DHT22;51453;47.738;7.420;2023-12-29T12:33:03;12.30;99.90
64939;DHT22;51453;47.738;7.420;2023-12-29T12:35:29;12.40;99.90
64939;DHT22;51453;47.738;7.420;2023-12-29T12:38:14;12.30;99.90
64939;DHT22;51453;47.738;7.420;2023-12-29T12:40:45;12.50;99.90
64939;DHT22;51453;47.738;7.420;2023-12-29T12:43:14;12.60;99.90
64939;DHT22;51453;47.738;7.420;2023-12-29T12:45:48;12.70;99.90
64939;DHT22;51453;47.738;7.420;2023-12-29T12:50:53;12.60;99.90
64939;DHT22;51453;47.738;7.420;2023-12-29T12:53:22;12.50;99.90
64939;DHT22;51453;47.738;7.420;2023-12-29T12:55:49;12.60;99.90
64939;DHT22;51453;47.738;7.420;2023-12-29T12:58:19;12.70;99.90
64939;DHT22;51453;47.738;7.420;2023-12-29T13:00:46;12.70;99.90
64939;DHT22;51453;47.738;7.420;2023-12-29T13:03:13;12.70;99.90
64939;DHT22;51453;47.738;7.420;2023-12-29T13:05:39;12.90;99.90
64939;DHT22;51453;47.738;7.420;2023-12-29T13:08:05;12.90;99.90
64939;DHT22;51453;47.738;7.420;2023-12-29T13:10:31;12.90;99.90
64939;DHT22;51453;47.738;7.420;2023-12-29T13:12:57;13.10;99.90
64939;DHT22;51453;47.738;7.420;2023-12-29T13:15:23;13.10;99.90
64939;DHT22;51453;47.738;7.420;2023-12-29T13:17:53;13.30;99.90
64939;DHT22;51453;47.738;7.420;2023-12-29T13:20:19;13.40;99.90
64939;DHT22;51453;47.738;7.420;2023-12-29T13:22:49;13.40;99.90
64939;DHT22;51453;47.738;7.420;2023-12-29T13:25:24;13.20;99.90
64939;DHT22;51453;47.738;7.420;2023-12-29T13:27:53;13.10;99.90
64939;DHT22;51453;47.738;7.420;2023-12-29T13:30:20;13.20;99.90
64939;DHT22;51453;47.738;7.420;2023-12-29T13:32:47;13.30;99.90
64939;DHT22;51453;47.738;7.420;2023-12-29T13:37:50;13.30;99.90
64939;DHT22;51453;47.738;7.420;2023-12-29T13:40:36;13.10;99.90
64939;DHT22;51453;47.738;7.420;2023-12-29T13:43:03;13.00;99.90
64939;DHT22;51453;47.738;7.420;2023-12-29T13:45:33;12.80;99.90
64939;DHT22;51453;47.738;7.420;2023-12-29T13:48:00;12.60;99.90
64939;DHT22;51453;47.738;7.420;2023-12-29T13:50:26;12.70;99.90
64939;DHT22;51453;47.738;7.420;2023-12-29T13:52:52;12.70;99.90
64939;DHT22;51453;47.738;7.420;2023-12-29T13:55:24;12.70;99.90
64939;DHT22;51453;47.738;7.420;2023-12-29T13:57:52;12.70;99.90
64939;DHT22;51453;47.738;7.420;2023-12-29T14:00:23;12.60;99.90
64939;DHT22;51453;47.738;7.420;2023-12-29T14:03:02;12.60;99.90
64939;DHT22;51453;47.738;7.420;2023-12-29T14:08:17;12.50;99.90
64939;DHT22;51453;47.738;7.420;2023-12-29T14:10:44;12.40;99.90
64939;DHT22;51453;47.738;7.420;2023-12-29T14:13:12;12.30;99.90
64939;DHT22;51453;47.738;7.420;2023-12-29T14:15:39;12.20;99.90
64939;DHT22;51453;47.738;7.420;2023-12-29T14:20:41;12.10;99.90
64939;DHT22;51453;47.738;7.420;2023-12-29T14:23:07;12.10;99.90
64939;DHT22;51453;47.738;7.420;2023-12-29T14:25:36;12.10;99.90
64939;DHT22;51453;47.738;7.420;2023-12-29T14:28:21;12.00;99.90
64939;DHT22;51453;47.738;7.420;2023-12-29T14:30:47;12.00;99.90
64939;DHT22;51453;47.738;7.420;2023-12-29T14:33:13;12.00;99.90
64939;DHT22;51453;47.738;7.420;2023-12-29T14:35:39;11.90;99.90
64939;DHT22;51453;47.738;7.420;2023-12-29T14:38:04;11.80;99.90
64939;DHT22;51453;47.738;7.420;2023-12-29T14:40:30;11.80;99.90
64939;DHT22;51453;47.738;7.420;2023-12-29T14:43:00;11.80;99.90
64939;DHT22;51453;47.738;7.420;2023-12-29T14:45:25;11.80;99.90
64939;DHT22;51453;47.738;7.420;2023-12-29T14:47:51;11.80;99.90
64939;DHT22;51453;47.738;7.420;2023-12-29T14:50:17;11.70;99.90
64939;DHT22;51453;47.738;7.420;2023-12-29T14:52:42;11.70;99.90
64939;DHT22;51453;47.738;7.420;2023-12-29T14:55:08;11.70;99.90
64939;DHT22;51453;47.738;7.420;2023-12-29T14:57:34;11.70;99.90
64939;DHT22;51453;47.738;7.420;2023-12-29T14:59:59;11.60;99.90
64939;DHT22;51453;47.738;7.420;2023-12-29T15:02:25;11.60;99.90
64939;DHT22;51453;47.738;7.420;2023-12-29T15:04:50;11.50;99.90
64939;DHT22;51453;47.738;7.420;2023-12-29T15:07:16;11.50;99.90
64939;DHT22;51453;47.738;7.420;2023-12-29T15:09:43;11.50;99.90
64939;DHT22;51453;47.738;7.420;2023-12-29T15:12:09;11.50;99.90
64939;DHT22;51453;47.738;7.420;2023-12-29T15:14:35;11.40;99.90
64939;DHT22;51453;47.738;7.420;2023-12-29T15:17:00;11.40;99.90
64939;DHT22;51453;47.738;7.420;2023-12-29T15:19:26;11.40;99.90
64939;DHT22;51453;47.738;7.420;2023-12-29T15:21:51;11.40;99.90
64939;DHT22;51453;47.738;7.420;2023-12-29T15:24:20;11.50;99.90
64939;DHT22;51453;47.738;7.420;2023-12-29T15:26:46;11.50;99.90
64939;DHT22;51453;47.738;7.420;2023-12-29T15:29:11;11.50;99.90
64939;DHT22;51453;47.738;7.420;2023-12-29T15:31:37;11.50;99.90
64939;DHT22;51453;47.738;7.420;2023-12-29T15:34:02;11.40;99.90
64939;DHT22;51453;47.738;7.420;2023-12-29T15:36:29;11.40;99.90
64939;DHT22;51453;47.738;7.420;2023-12-29T15:38:55;11.40;99.90
64939;DHT22;51453;47.738;7.420;2023-12-29T15:41:20;11.40;99.90
64939;DHT22;51453;47.738;7.420;2023-12-29T15:43:46;11.40;99.90
64939;DHT22;51453;47.738;7.420;2023-12-29T15:46:16;11.40;99.90
64939;DHT22;51453;47.738;7.420;2023-12-29T15:48:45;11.40;99.90
64939;DHT22;51453;47.738;7.420;2023-12-29T15:51:11;11.30;99.90
64939;DHT22;51453;47.738;7.420;2023-12-29T15:53:37;11.30;99.90
64939;DHT22;51453;47.738;7.420;2023-12-29T15:56:05;11.30;99.90
64939;DHT22;51453;47.738;7.420;2023-12-29T15:58:31;11.30;99.90
64939;DHT22;51453;47.738;7.420;2023-12-29T16:00:57;11.40;99.90
64939;DHT22;51453;47.738;7.420;2023-12-29T16:03:23;11.30;99.90